Meramec River (Missouri), Eureka (07019000)

StateMissouriLatestUnknown (870 cfs)
RiverMeramec RiverRatingObservedEstimated
Updated2022-09-25 22:30 (27 minutes ago)Flood - The river is flooding. Obstacles can be treacherous or deadly. The river should be avoided at this stage for casual trips and definitely for the inexperienced. Trips should be attempted only with protective gear and equipment.Flood(none)(none)
Discharge870 cfs (median: 697 cfs)High - The river is high and potentially dangerous, especially for the young and / or inexperienced. Normal stream obstacles are sometimes difficult to navigate. Extended distances can be attempted, but canoe travel may not be advisable.High(none)(none)
Height3.16 feetGood - Conditions are ideal for a canoe or kayak. Boats typically will drag on fewer than one-quarter of riffles, if at all, and portages are unnecessary or rare. Normal float lengths can be attempted without a problem.Good(none)(none)
TrendSteady (rising over 24 hours)Low - River is low but can still be floated. Some riffles are okay but most come with significant dragging and might need a portage. Float lengths should be reduced to accommodate low flow, dragging, and portages.Low(none)(none)
USGSExternal icon USGS Site (External icon Duck Duck Go Maps)Poor - River is too low to float comfortably. Most or all riffles will drag or must be portaged and some obstacles (such as slick shelf rock) cause undue problems. Avoid the river at this stage for casual paddling trips.Poor(none)(none)

Trending Data

Plot Image

Trips for Meramec River (Missouri), Eureka (07019000)

DateStartEndDistanceConditionDischargeHeightFishingDetails

A total of 0 rows are displayed.

Condition Descriptions

Fishing Conditions

Fish Species

Notes

Classic Trip List

The classic River Trips application is still available for use. It is updated with the new system using a data retrofit. It is no longer maintained. The original River Trips application is no longer updated (as of 1 Dec 2016) but can be checked for errors or for the condition of the data before it was converted to the new system.

Gauge Data Table

ObservationHeightDischargeMaximum
Discharge
Minimum
Discharge
Mean
Discharge
P05P10P20P25P50
(Median)
P75P80P90P95
2022-09-25 22:30 3.16 870 85500 (1993) 234 (1956) 2030 337 390 479 531 697 1040 1620 2920 4110
2022-09-25 22:00 3.16 870 85500 (1993) 234 (1956) 2030 337 390 479 531 697 1040 1620 2920 4110
2022-09-25 21:30 3.16 870 85500 (1993) 234 (1956) 2030 337 390 479 531 697 1040 1620 2920 4110
2022-09-25 21:00 3.16 870 85500 (1993) 234 (1956) 2030 337 390 479 531 697 1040 1620 2920 4110
2022-09-25 20:30 3.16 870 85500 (1993) 234 (1956) 2030 337 390 479 531 697 1040 1620 2920 4110
2022-09-25 20:00 3.17 881 85500 (1993) 234 (1956) 2030 337 390 479 531 697 1040 1620 2920 4110
2022-09-25 19:30 3.17 881 85500 (1993) 234 (1956) 2030 337 390 479 531 697 1040 1620 2920 4110
2022-09-25 19:00 3.17 881 85500 (1993) 234 (1956) 2030 337 390 479 531 697 1040 1620 2920 4110
2022-09-25 18:30 3.17 881 85500 (1993) 234 (1956) 2030 337 390 479 531 697 1040 1620 2920 4110
2022-09-25 18:00 3.17 881 85500 (1993) 234 (1956) 2030 337 390 479 531 697 1040 1620 2920 4110
2022-09-25 17:30 3.17 881 85500 (1993) 234 (1956) 2030 337 390 479 531 697 1040 1620 2920 4110
2022-09-25 17:00 3.17 881 85500 (1993) 234 (1956) 2030 337 390 479 531 697 1040 1620 2920 4110
2022-09-25 16:30 3.17 881 85500 (1993) 234 (1956) 2030 337 390 479 531 697 1040 1620 2920 4110
2022-09-25 16:00 3.17 881 85500 (1993) 234 (1956) 2030 337 390 479 531 697 1040 1620 2920 4110
2022-09-25 15:30 3.17 881 85500 (1993) 234 (1956) 2030 337 390 479 531 697 1040 1620 2920 4110
2022-09-25 15:00 3.17 881 85500 (1993) 234 (1956) 2030 337 390 479 531 697 1040 1620 2920 4110
2022-09-25 14:30 3.16 870 85500 (1993) 234 (1956) 2030 337 390 479 531 697 1040 1620 2920 4110
2022-09-25 14:00 3.16 870 85500 (1993) 234 (1956) 2030 337 390 479 531 697 1040 1620 2920 4110
2022-09-25 13:30 3.17 881 85500 (1993) 234 (1956) 2030 337 390 479 531 697 1040 1620 2920 4110
2022-09-25 13:00 3.16 870 85500 (1993) 234 (1956) 2030 337 390 479 531 697 1040 1620 2920 4110
2022-09-25 12:30 3.17 881 85500 (1993) 234 (1956) 2030 337 390 479 531 697 1040 1620 2920 4110
2022-09-25 12:00 3.15 858 85500 (1993) 234 (1956) 2030 337 390 479 531 697 1040 1620 2920 4110
2022-09-25 11:30 3.16 870 85500 (1993) 234 (1956) 2030 337 390 479 531 697 1040 1620 2920 4110
2022-09-25 11:00 3.15 858 85500 (1993) 234 (1956) 2030 337 390 479 531 697 1040 1620 2920 4110
2022-09-25 10:30 3.14 847 85500 (1993) 234 (1956) 2030 337 390 479 531 697 1040 1620 2920 4110
2022-09-25 10:00 3.14 847 85500 (1993) 234 (1956) 2030 337 390 479 531 697 1040 1620 2920 4110
2022-09-25 09:30 3.14 847 85500 (1993) 234 (1956) 2030 337 390 479 531 697 1040 1620 2920 4110
2022-09-25 09:00 3.13 836 85500 (1993) 234 (1956) 2030 337 390 479 531 697 1040 1620 2920 4110
2022-09-25 08:30 3.13 836 85500 (1993) 234 (1956) 2030 337 390 479 531 697 1040 1620 2920 4110
2022-09-25 08:00 3.12 825 85500 (1993) 234 (1956) 2030 337 390 479 531 697 1040 1620 2920 4110
2022-09-25 07:30 3.12 825 85500 (1993) 234 (1956) 2030 337 390 479 531 697 1040 1620 2920 4110
2022-09-25 07:00 3.12 825 85500 (1993) 234 (1956) 2030 337 390 479 531 697 1040 1620 2920 4110
2022-09-25 06:30 3.11 815 85500 (1993) 234 (1956) 2030 337 390 479 531 697 1040 1620 2920 4110
2022-09-25 06:00 3.11 815 85500 (1993) 234 (1956) 2030 337 390 479 531 697 1040 1620 2920 4110
2022-09-25 05:30 3.11 815 85500 (1993) 234 (1956) 2030 337 390 479 531 697 1040 1620 2920 4110
2022-09-25 05:00 3.11 815 85500 (1993) 234 (1956) 2030 337 390 479 531 697 1040 1620 2920 4110
2022-09-25 04:30 3.11 815 85500 (1993) 234 (1956) 2030 337 390 479 531 697 1040 1620 2920 4110
2022-09-25 04:00 3.10 804 85500 (1993) 234 (1956) 2030 337 390 479 531 697 1040 1620 2920 4110
2022-09-25 03:30 3.10 804 85500 (1993) 234 (1956) 2030 337 390 479 531 697 1040 1620 2920 4110
2022-09-25 03:00 3.10 804 85500 (1993) 234 (1956) 2030 337 390 479 531 697 1040 1620 2920 4110
2022-09-25 02:30 3.10 804 85500 (1993) 234 (1956) 2030 337 390 479 531 697 1040 1620 2920 4110
2022-09-25 02:00 3.09 793 85500 (1993) 234 (1956) 2030 337 390 479 531 697 1040 1620 2920 4110
2022-09-25 01:30 3.09 793 85500 (1993) 234 (1956) 2030 337 390 479 531 697 1040 1620 2920 4110
2022-09-25 01:00 3.09 793 85500 (1993) 234 (1956) 2030 337 390 479 531 697 1040 1620 2920 4110
2022-09-25 00:30 3.09 793 85500 (1993) 234 (1956) 2030 337 390 479 531 697 1040 1620 2920 4110
2022-09-25 00:00 3.09 793 85500 (1993) 234 (1956) 2030 337 390 479 531 697 1040 1620 2920 4110
2022-09-24 23:30 3.08 782 51200 (1993) 229 (1956) 1660 337 387 493 532 690 1020 1520 3070 5230
2022-09-24 23:00 3.08 782 51200 (1993) 229 (1956) 1660 337 387 493 532 690 1020 1520 3070 5230
2022-09-24 22:30 3.08 782 51200 (1993) 229 (1956) 1660 337 387 493 532 690 1020 1520 3070 5230
2022-09-24 22:00 3.08 782 51200 (1993) 229 (1956) 1660 337 387 493 532 690 1020 1520 3070 5230
2022-09-24 21:30 3.07 771 51200 (1993) 229 (1956) 1660 337 387 493 532 690 1020 1520 3070 5230
2022-09-24 21:00 3.08 782 51200 (1993) 229 (1956) 1660 337 387 493 532 690 1020 1520 3070 5230
2022-09-24 20:30 3.07 771 51200 (1993) 229 (1956) 1660 337 387 493 532 690 1020 1520 3070 5230
2022-09-24 20:00 3.06 761 51200 (1993) 229 (1956) 1660 337 387 493 532 690 1020 1520 3070 5230
2022-09-24 19:30 3.06 761 51200 (1993) 229 (1956) 1660 337 387 493 532 690 1020 1520 3070 5230
2022-09-24 19:00 3.06 761 51200 (1993) 229 (1956) 1660 337 387 493 532 690 1020 1520 3070 5230
2022-09-24 18:30 3.05 750 51200 (1993) 229 (1956) 1660 337 387 493 532 690 1020 1520 3070 5230
2022-09-24 18:00 3.05 750 51200 (1993) 229 (1956) 1660 337 387 493 532 690 1020 1520 3070 5230
2022-09-24 17:30 3.05 750 51200 (1993) 229 (1956) 1660 337 387 493 532 690 1020 1520 3070 5230
2022-09-24 17:00 3.05 750 51200 (1993) 229 (1956) 1660 337 387 493 532 690 1020 1520 3070 5230
2022-09-24 16:30 3.04 740 51200 (1993) 229 (1956) 1660 337 387 493 532 690 1020 1520 3070 5230
2022-09-24 16:00 3.03 729 51200 (1993) 229 (1956) 1660 337 387 493 532 690 1020 1520 3070 5230
2022-09-24 15:30 3.02 719 51200 (1993) 229 (1956) 1660 337 387 493 532 690 1020 1520 3070 5230
2022-09-24 15:00 3.02 719 51200 (1993) 229 (1956) 1660 337 387 493 532 690 1020 1520 3070 5230
2022-09-24 14:30 3.01 708 51200 (1993) 229 (1956) 1660 337 387 493 532 690 1020 1520 3070 5230
2022-09-24 14:00 3.01 708 51200 (1993) 229 (1956) 1660 337 387 493 532 690 1020 1520 3070 5230
2022-09-24 13:30 3.00 698 51200 (1993) 229 (1956) 1660 337 387 493 532 690 1020 1520 3070 5230
2022-09-24 13:00 3.00 698 51200 (1993) 229 (1956) 1660 337 387 493 532 690 1020 1520 3070 5230
2022-09-24 12:30 2.99 688 51200 (1993) 229 (1956) 1660 337 387 493 532 690 1020 1520 3070 5230
2022-09-24 12:00 2.98 677 51200 (1993) 229 (1956) 1660 337 387 493 532 690 1020 1520 3070 5230
2022-09-24 11:30 2.98 677 51200 (1993) 229 (1956) 1660 337 387 493 532 690 1020 1520 3070 5230
2022-09-24 11:00 2.97 667 51200 (1993) 229 (1956) 1660 337 387 493 532 690 1020 1520 3070 5230
2022-09-24 10:30 2.97 667 51200 (1993) 229 (1956) 1660 337 387 493 532 690 1020 1520 3070 5230
2022-09-24 10:00 2.96 657 51200 (1993) 229 (1956) 1660 337 387 493 532 690 1020 1520 3070 5230
2022-09-24 09:30 2.96 657 51200 (1993) 229 (1956) 1660 337 387 493 532 690 1020 1520 3070 5230
2022-09-24 09:00 2.95 647 51200 (1993) 229 (1956) 1660 337 387 493 532 690 1020 1520 3070 5230
2022-09-24 08:30 2.95 647 51200 (1993) 229 (1956) 1660 337 387 493 532 690 1020 1520 3070 5230
2022-09-24 08:00 2.95 647 51200 (1993) 229 (1956) 1660 337 387 493 532 690 1020 1520 3070 5230
2022-09-24 07:30 2.94 637 51200 (1993) 229 (1956) 1660 337 387 493 532 690 1020 1520 3070 5230
2022-09-24 07:00 2.93 627 51200 (1993) 229 (1956) 1660 337 387 493 532 690 1020 1520 3070 5230
2022-09-24 06:30 2.93 627 51200 (1993) 229 (1956) 1660 337 387 493 532 690 1020 1520 3070 5230
2022-09-24 06:00 2.93 627 51200 (1993) 229 (1956) 1660 337 387 493 532 690 1020 1520 3070 5230
2022-09-24 05:30 2.92 617 51200 (1993) 229 (1956) 1660 337 387 493 532 690 1020 1520 3070 5230
2022-09-24 05:00 2.92 617 51200 (1993) 229 (1956) 1660 337 387 493 532 690 1020 1520 3070 5230
2022-09-24 04:30 2.92 617 51200 (1993) 229 (1956) 1660 337 387 493 532 690 1020 1520 3070 5230
2022-09-24 04:00 2.92 617 51200 (1993) 229 (1956) 1660 337 387 493 532 690 1020 1520 3070 5230
2022-09-24 03:30 2.91 607 51200 (1993) 229 (1956) 1660 337 387 493 532 690 1020 1520 3070 5230
2022-09-24 03:00 2.91 607 51200 (1993) 229 (1956) 1660 337 387 493 532 690 1020 1520 3070 5230
2022-09-24 02:30 2.91 607 51200 (1993) 229 (1956) 1660 337 387 493 532 690 1020 1520 3070 5230
2022-09-24 02:00 2.91 607 51200 (1993) 229 (1956) 1660 337 387 493 532 690 1020 1520 3070 5230
2022-09-24 01:30 2.91 607 51200 (1993) 229 (1956) 1660 337 387 493 532 690 1020 1520 3070 5230
2022-09-24 01:00 2.91 607 51200 (1993) 229 (1956) 1660 337 387 493 532 690 1020 1520 3070 5230
2022-09-24 00:30 2.90 597 51200 (1993) 229 (1956) 1660 337 387 493 532 690 1020 1520 3070 5230
2022-09-24 00:00 2.90 597 51200 (1993) 229 (1956) 1660 337 387 493 532 690 1020 1520 3070 5230
2022-09-23 23:30 2.90 597 27200 (1993) 220 (1956) 1550 344 405 481 529 694 1090 1490 3570 4420
2022-09-23 23:00 2.90 597 27200 (1993) 220 (1956) 1550 344 405 481 529 694 1090 1490 3570 4420
2022-09-23 22:30 2.90 597 27200 (1993) 220 (1956) 1550 344 405 481 529 694 1090 1490 3570 4420
2022-09-23 22:00 2.91 607 27200 (1993) 220 (1956) 1550 344 405 481 529 694 1090 1490 3570 4420
2022-09-23 21:30 2.90 597 27200 (1993) 220 (1956) 1550 344 405 481 529 694 1090 1490 3570 4420
2022-09-23 21:00 2.91 607 27200 (1993) 220 (1956) 1550 344 405 481 529 694 1090 1490 3570 4420
2022-09-23 20:30 2.91 607 27200 (1993) 220 (1956) 1550 344 405 481 529 694 1090 1490 3570 4420
2022-09-23 20:00 2.91 607 27200 (1993) 220 (1956) 1550 344 405 481 529 694 1090 1490 3570 4420
2022-09-23 19:30 2.91 607 27200 (1993) 220 (1956) 1550 344 405 481 529 694 1090 1490 3570 4420
2022-09-23 19:00 2.91 607 27200 (1993) 220 (1956) 1550 344 405 481 529 694 1090 1490 3570 4420
2022-09-23 18:30 2.91 607 27200 (1993) 220 (1956) 1550 344 405 481 529 694 1090 1490 3570 4420
2022-09-23 18:00 2.91 607 27200 (1993) 220 (1956) 1550 344 405 481 529 694 1090 1490 3570 4420
2022-09-23 17:30 2.91 607 27200 (1993) 220 (1956) 1550 344 405 481 529 694 1090 1490 3570 4420
2022-09-23 17:00 2.91 607 27200 (1993) 220 (1956) 1550 344 405 481 529 694 1090 1490 3570 4420
2022-09-23 16:30 2.91 607 27200 (1993) 220 (1956) 1550 344 405 481 529 694 1090 1490 3570 4420
2022-09-23 16:00 2.91 607 27200 (1993) 220 (1956) 1550 344 405 481 529 694 1090 1490 3570 4420
2022-09-23 15:30 2.91 607 27200 (1993) 220 (1956) 1550 344 405 481 529 694 1090 1490 3570 4420
2022-09-23 15:00 2.91 607 27200 (1993) 220 (1956) 1550 344 405 481 529 694 1090 1490 3570 4420
2022-09-23 14:30 2.91 607 27200 (1993) 220 (1956) 1550 344 405 481 529 694 1090 1490 3570 4420
2022-09-23 14:00 2.91 607 27200 (1993) 220 (1956) 1550 344 405 481 529 694 1090 1490 3570 4420
2022-09-23 13:30 2.91 607 27200 (1993) 220 (1956) 1550 344 405 481 529 694 1090 1490 3570 4420
2022-09-23 13:00 2.92 617 27200 (1993) 220 (1956) 1550 344 405 481 529 694 1090 1490 3570 4420
2022-09-23 12:30 2.91 607 27200 (1993) 220 (1956) 1550 344 405 481 529 694 1090 1490 3570 4420
2022-09-23 12:00 2.92 617 27200 (1993) 220 (1956) 1550 344 405 481 529 694 1090 1490 3570 4420
2022-09-23 11:30 2.92 617 27200 (1993) 220 (1956) 1550 344 405 481 529 694 1090 1490 3570 4420
2022-09-23 11:00 2.92 617 27200 (1993) 220 (1956) 1550 344 405 481 529 694 1090 1490 3570 4420
2022-09-23 10:30 2.92 617 27200 (1993) 220 (1956) 1550 344 405 481 529 694 1090 1490 3570 4420
2022-09-23 10:00 2.91 607 27200 (1993) 220 (1956) 1550 344 405 481 529 694 1090 1490 3570 4420
2022-09-23 09:30 2.92 617 27200 (1993) 220 (1956) 1550 344 405 481 529 694 1090 1490 3570 4420
2022-09-23 09:00 2.92 617 27200 (1993) 220 (1956) 1550 344 405 481 529 694 1090 1490 3570 4420
2022-09-23 08:30 2.92 617 27200 (1993) 220 (1956) 1550 344 405 481 529 694 1090 1490 3570 4420
2022-09-23 08:00 2.92 617 27200 (1993) 220 (1956) 1550 344 405 481 529 694 1090 1490 3570 4420
2022-09-23 07:30 2.92 617 27200 (1993) 220 (1956) 1550 344 405 481 529 694 1090 1490 3570 4420
2022-09-23 07:00 2.93 627 27200 (1993) 220 (1956) 1550 344 405 481 529 694 1090 1490 3570 4420
2022-09-23 06:30 2.93 627 27200 (1993) 220 (1956) 1550 344 405 481 529 694 1090 1490 3570 4420
2022-09-23 06:00 2.93 627 27200 (1993) 220 (1956) 1550 344 405 481 529 694 1090 1490 3570 4420
2022-09-23 05:30 2.92 617 27200 (1993) 220 (1956) 1550 344 405 481 529 694 1090 1490 3570 4420
2022-09-23 05:00 2.93 627 27200 (1993) 220 (1956) 1550 344 405 481 529 694 1090 1490 3570 4420
2022-09-23 04:30 2.93 627 27200 (1993) 220 (1956) 1550 344 405 481 529 694 1090 1490 3570 4420
2022-09-23 04:00 2.93 627 27200 (1993) 220 (1956) 1550 344 405 481 529 694 1090 1490 3570 4420
2022-09-23 03:30 2.92 617 27200 (1993) 220 (1956) 1550 344 405 481 529 694 1090 1490 3570 4420
2022-09-23 03:00 2.92 617 27200 (1993) 220 (1956) 1550 344 405 481 529 694 1090 1490 3570 4420
2022-09-23 02:30 2.93 627 27200 (1993) 220 (1956) 1550 344 405 481 529 694 1090 1490 3570 4420
2022-09-23 02:00 2.93 627 27200 (1993) 220 (1956) 1550 344 405 481 529 694 1090 1490 3570 4420
2022-09-23 01:30 2.93 627 27200 (1993) 220 (1956) 1550 344 405 481 529 694 1090 1490 3570 4420
2022-09-23 01:00 2.93 627 27200 (1993) 220 (1956) 1550 344 405 481 529 694 1090 1490 3570 4420
2022-09-23 00:30 2.93 627 27200 (1993) 220 (1956) 1550 344 405 481 529 694 1090 1490 3570 4420
2022-09-23 00:00 2.93 627 27200 (1993) 220 (1956) 1550 344 405 481 529 694 1090 1490 3570 4420
2022-09-22 23:30 2.93 627 37600 (1905) 205 (1956) 1620 320 371 459 519 706 1180 1730 3430 5840
2022-09-22 23:00 2.93 627 37600 (1905) 205 (1956) 1620 320 371 459 519 706 1180 1730 3430 5840
2022-09-22 22:30 2.93 627 37600 (1905) 205 (1956) 1620 320 371 459 519 706 1180 1730 3430 5840
2022-09-22 22:00 2.93 627 37600 (1905) 205 (1956) 1620 320 371 459 519 706 1180 1730 3430 5840
2022-09-22 21:30 2.93 627 37600 (1905) 205 (1956) 1620 320 371 459 519 706 1180 1730 3430 5840
2022-09-22 21:00 2.94 637 37600 (1905) 205 (1956) 1620 320 371 459 519 706 1180 1730 3430 5840
2022-09-22 20:30 2.94 637 37600 (1905) 205 (1956) 1620 320 371 459 519 706 1180 1730 3430 5840
2022-09-22 20:00 2.94 637 37600 (1905) 205 (1956) 1620 320 371 459 519 706 1180 1730 3430 5840
2022-09-22 19:30 2.94 637 37600 (1905) 205 (1956) 1620 320 371 459 519 706 1180 1730 3430 5840
2022-09-22 19:00 2.95 647 37600 (1905) 205 (1956) 1620 320 371 459 519 706 1180 1730 3430 5840
2022-09-22 18:30 2.94 637 37600 (1905) 205 (1956) 1620 320 371 459 519 706 1180 1730 3430 5840
2022-09-22 18:00 2.94 637 37600 (1905) 205 (1956) 1620 320 371 459 519 706 1180 1730 3430 5840
2022-09-22 17:30 2.95 647 37600 (1905) 205 (1956) 1620 320 371 459 519 706 1180 1730 3430 5840
2022-09-22 17:00 2.95 647 37600 (1905) 205 (1956) 1620 320 371 459 519 706 1180 1730 3430 5840
2022-09-22 16:30 2.95 647 37600 (1905) 205 (1956) 1620 320 371 459 519 706 1180 1730 3430 5840
2022-09-22 16:00 2.94 637 37600 (1905) 205 (1956) 1620 320 371 459 519 706 1180 1730 3430 5840
2022-09-22 15:30 2.95 647 37600 (1905) 205 (1956) 1620 320 371 459 519 706 1180 1730 3430 5840
2022-09-22 15:00 2.95 647 37600 (1905) 205 (1956) 1620 320 371 459 519 706 1180 1730 3430 5840
2022-09-22 14:30 2.96 657 37600 (1905) 205 (1956) 1620 320 371 459 519 706 1180 1730 3430 5840
2022-09-22 14:00 2.96 657 37600 (1905) 205 (1956) 1620 320 371 459 519 706 1180 1730 3430 5840
2022-09-22 13:30 2.96 657 37600 (1905) 205 (1956) 1620 320 371 459 519 706 1180 1730 3430 5840
2022-09-22 13:00 2.97 667 37600 (1905) 205 (1956) 1620 320 371 459 519 706 1180 1730 3430 5840
2022-09-22 12:30 2.96 657 37600 (1905) 205 (1956) 1620 320 371 459 519 706 1180 1730 3430 5840
2022-09-22 12:00 2.97 667 37600 (1905) 205 (1956) 1620 320 371 459 519 706 1180 1730 3430 5840
2022-09-22 11:30 2.97 667 37600 (1905) 205 (1956) 1620 320 371 459 519 706 1180 1730 3430 5840
2022-09-22 11:00 2.98 677 37600 (1905) 205 (1956) 1620 320 371 459 519 706 1180 1730 3430 5840
2022-09-22 10:30 2.98 677 37600 (1905) 205 (1956) 1620 320 371 459 519 706 1180 1730 3430 5840
2022-09-22 10:00 2.98 677 37600 (1905) 205 (1956) 1620 320 371 459 519 706 1180 1730 3430 5840
2022-09-22 09:30 2.98 677 37600 (1905) 205 (1956) 1620 320 371 459 519 706 1180 1730 3430 5840
2022-09-22 09:00 2.99 688 37600 (1905) 205 (1956) 1620 320 371 459 519 706 1180 1730 3430 5840
2022-09-22 08:30 3.00 698 37600 (1905) 205 (1956) 1620 320 371 459 519 706 1180 1730 3430 5840
2022-09-22 08:00 3.00 698 37600 (1905) 205 (1956) 1620 320 371 459 519 706 1180 1730 3430 5840
2022-09-22 07:30 3.01 708 37600 (1905) 205 (1956) 1620 320 371 459 519 706 1180 1730 3430 5840
2022-09-22 07:00 3.02 719 37600 (1905) 205 (1956) 1620 320 371 459 519 706 1180 1730 3430 5840
2022-09-22 06:30 3.03 729 37600 (1905) 205 (1956) 1620 320 371 459 519 706 1180 1730 3430 5840
2022-09-22 06:00 3.02 719 37600 (1905) 205 (1956) 1620 320 371 459 519 706 1180 1730 3430 5840
2022-09-22 05:30 3.04 740 37600 (1905) 205 (1956) 1620 320 371 459 519 706 1180 1730 3430 5840
2022-09-22 05:00 3.04 740 37600 (1905) 205 (1956) 1620 320 371 459 519 706 1180 1730 3430 5840
2022-09-22 04:30 3.04 740 37600 (1905) 205 (1956) 1620 320 371 459 519 706 1180 1730 3430 5840
2022-09-22 04:00 3.05 750 37600 (1905) 205 (1956) 1620 320 371 459 519 706 1180 1730 3430 5840
2022-09-22 03:30 3.05 750 37600 (1905) 205 (1956) 1620 320 371 459 519 706 1180 1730 3430 5840
2022-09-22 03:00 3.06 761 37600 (1905) 205 (1956) 1620 320 371 459 519 706 1180 1730 3430 5840
2022-09-22 02:30 3.06 761 37600 (1905) 205 (1956) 1620 320 371 459 519 706 1180 1730 3430 5840
2022-09-22 02:00 3.06 761 37600 (1905) 205 (1956) 1620 320 371 459 519 706 1180 1730 3430 5840
2022-09-22 01:30 3.05 750 37600 (1905) 205 (1956) 1620 320 371 459 519 706 1180 1730 3430 5840
2022-09-22 01:00 3.05 750 37600 (1905) 205 (1956) 1620 320 371 459 519 706 1180 1730 3430 5840
2022-09-22 00:30 3.04 740 37600 (1905) 205 (1956) 1620 320 371 459 519 706 1180 1730 3430 5840
2022-09-22 00:00 3.04 740 37600 (1905) 205 (1956) 1620 320 371 459 519 706 1180 1730 3430 5840
2022-09-21 23:30 3.04 740 48000 (1905) 205 (1956) 1650 322 373 453 525 727 1230 1530 3450 4320
2022-09-21 23:00 3.04 740 48000 (1905) 205 (1956) 1650 322 373 453 525 727 1230 1530 3450 4320
2022-09-21 22:30 3.04 740 48000 (1905) 205 (1956) 1650 322 373 453 525 727 1230 1530 3450 4320
2022-09-21 22:00 3.01 708 48000 (1905) 205 (1956) 1650 322 373 453 525 727 1230 1530 3450 4320
2022-09-21 21:30 3.00 698 48000 (1905) 205 (1956) 1650 322 373 453 525 727 1230 1530 3450 4320
2022-09-21 21:00 3.00 698 48000 (1905) 205 (1956) 1650 322 373 453 525 727 1230 1530 3450 4320
2022-09-21 20:30 3.00 698 48000 (1905) 205 (1956) 1650 322 373 453 525 727 1230 1530 3450 4320
2022-09-21 20:00 3.00 698 48000 (1905) 205 (1956) 1650 322 373 453 525 727 1230 1530 3450 4320
2022-09-21 19:30 3.00 698 48000 (1905) 205 (1956) 1650 322 373 453 525 727 1230 1530 3450 4320
2022-09-21 19:00 2.99 688 48000 (1905) 205 (1956) 1650 322 373 453 525 727 1230 1530 3450 4320
2022-09-21 18:30 2.97 667 48000 (1905) 205 (1956) 1650 322 373 453 525 727 1230 1530 3450 4320
2022-09-21 18:00 2.97 667 48000 (1905) 205 (1956) 1650 322 373 453 525 727 1230 1530 3450 4320
2022-09-21 17:30 2.97 667 48000 (1905) 205 (1956) 1650 322 373 453 525 727 1230 1530 3450 4320
2022-09-21 17:00 2.97 667 48000 (1905) 205 (1956) 1650 322 373 453 525 727 1230 1530 3450 4320
2022-09-21 16:30 2.97 667 48000 (1905) 205 (1956) 1650 322 373 453 525 727 1230 1530 3450 4320
2022-09-21 16:00 2.97 667 48000 (1905) 205 (1956) 1650 322 373 453 525 727 1230 1530 3450 4320
2022-09-21 15:30 2.97 667 48000 (1905) 205 (1956) 1650 322 373 453 525 727 1230 1530 3450 4320
2022-09-21 15:00 2.97 667 48000 (1905) 205 (1956) 1650 322 373 453 525 727 1230 1530 3450 4320
2022-09-21 14:30 2.97 667 48000 (1905) 205 (1956) 1650 322 373 453 525 727 1230 1530 3450 4320
2022-09-21 14:00 2.98 677 48000 (1905) 205 (1956) 1650 322 373 453 525 727 1230 1530 3450 4320
2022-09-21 13:30 2.97 667 48000 (1905) 205 (1956) 1650 322 373 453 525 727 1230 1530 3450 4320
2022-09-21 13:00 2.98 677 48000 (1905) 205 (1956) 1650 322 373 453 525 727 1230 1530 3450 4320
2022-09-21 12:30 2.98 677 48000 (1905) 205 (1956) 1650 322 373 453 525 727 1230 1530 3450 4320
2022-09-21 12:00 2.98 677 48000 (1905) 205 (1956) 1650 322 373 453 525 727 1230 1530 3450 4320
2022-09-21 11:30 2.98 677 48000 (1905) 205 (1956) 1650 322 373 453 525 727 1230 1530 3450 4320
2022-09-21 11:00 2.97 667 48000 (1905) 205 (1956) 1650 322 373 453 525 727 1230 1530 3450 4320
2022-09-21 10:30 2.98 677 48000 (1905) 205 (1956) 1650 322 373 453 525 727 1230 1530 3450 4320
2022-09-21 10:00 2.98 677 48000 (1905) 205 (1956) 1650 322 373 453 525 727 1230 1530 3450 4320
2022-09-21 09:30 2.98 677 48000 (1905) 205 (1956) 1650 322 373 453 525 727 1230 1530 3450 4320
2022-09-21 09:00 2.98 677 48000 (1905) 205 (1956) 1650 322 373 453 525 727 1230 1530 3450 4320
2022-09-21 08:30 2.98 677 48000 (1905) 205 (1956) 1650 322 373 453 525 727 1230 1530 3450 4320
2022-09-21 08:00 2.98 677 48000 (1905) 205 (1956) 1650 322 373 453 525 727 1230 1530 3450 4320
2022-09-21 07:30 2.98 677 48000 (1905) 205 (1956) 1650 322 373 453 525 727 1230 1530 3450 4320
2022-09-21 07:00 2.98 677 48000 (1905) 205 (1956) 1650 322 373 453 525 727 1230 1530 3450 4320
2022-09-21 06:30 2.98 677 48000 (1905) 205 (1956) 1650 322 373 453 525 727 1230 1530 3450 4320
2022-09-21 06:00 2.98 677 48000 (1905) 205 (1956) 1650 322 373 453 525 727 1230 1530 3450 4320
2022-09-21 05:30 2.98 677 48000 (1905) 205 (1956) 1650 322 373 453 525 727 1230 1530 3450 4320
2022-09-21 05:00 2.98 677 48000 (1905) 205 (1956) 1650 322 373 453 525 727 1230 1530 3450 4320
2022-09-21 04:30 2.99 688 48000 (1905) 205 (1956) 1650 322 373 453 525 727 1230 1530 3450 4320
2022-09-21 04:00 2.98 677 48000 (1905) 205 (1956) 1650 322 373 453 525 727 1230 1530 3450 4320
2022-09-21 03:30 2.98 677 48000 (1905) 205 (1956) 1650 322 373 453 525 727 1230 1530 3450 4320
2022-09-21 03:00 2.98 677 48000 (1905) 205 (1956) 1650 322 373 453 525 727 1230 1530 3450 4320
2022-09-21 02:30 2.97 667 48000 (1905) 205 (1956) 1650 322 373 453 525 727 1230 1530 3450 4320
2022-09-21 02:00 2.98 677 48000 (1905) 205 (1956) 1650 322 373 453 525 727 1230 1530 3450 4320
2022-09-21 01:30 2.98 677 48000 (1905) 205 (1956) 1650 322 373 453 525 727 1230 1530 3450 4320
2022-09-21 01:00 2.98 677 48000 (1905) 205 (1956) 1650 322 373 453 525 727 1230 1530 3450 4320
2022-09-21 00:30 2.98 677 48000 (1905) 205 (1956) 1650 322 373 453 525 727 1230 1530 3450 4320
2022-09-21 00:00 2.99 688 48000 (1905) 205 (1956) 1650 322 373 453 525 727 1230 1530 3450 4320
2022-09-20 23:30 2.98 677 51200 (1905) 210 (1956) 1720 325 370 451 525 703 1230 1420 2960 5060
2022-09-20 23:00 2.98 677 51200 (1905) 210 (1956) 1720 325 370 451 525 703 1230 1420 2960 5060
2022-09-20 22:30 2.99 688 51200 (1905) 210 (1956) 1720 325 370 451 525 703 1230 1420 2960 5060
2022-09-20 22:00 2.99 688 51200 (1905) 210 (1956) 1720 325 370 451 525 703 1230 1420 2960 5060
2022-09-20 21:30 2.99 688 51200 (1905) 210 (1956) 1720 325 370 451 525 703 1230 1420 2960 5060
2022-09-20 21:00 2.99 688 51200 (1905) 210 (1956) 1720 325 370 451 525 703 1230 1420 2960 5060
2022-09-20 20:30 2.99 688 51200 (1905) 210 (1956) 1720 325 370 451 525 703 1230 1420 2960 5060
2022-09-20 20:00 2.99 688 51200 (1905) 210 (1956) 1720 325 370 451 525 703 1230 1420 2960 5060
2022-09-20 19:30 2.99 688 51200 (1905) 210 (1956) 1720 325 370 451 525 703 1230 1420 2960 5060
2022-09-20 19:00 2.99 688 51200 (1905) 210 (1956) 1720 325 370 451 525 703 1230 1420 2960 5060
2022-09-20 18:30 2.99 688 51200 (1905) 210 (1956) 1720 325 370 451 525 703 1230 1420 2960 5060
2022-09-20 18:00 2.99 688 51200 (1905) 210 (1956) 1720 325 370 451 525 703 1230 1420 2960 5060
2022-09-20 17:30 2.99 688 51200 (1905) 210 (1956) 1720 325 370 451 525 703 1230 1420 2960 5060
2022-09-20 17:00 3.00 698 51200 (1905) 210 (1956) 1720 325 370 451 525 703 1230 1420 2960 5060
2022-09-20 16:30 3.00 698 51200 (1905) 210 (1956) 1720 325 370 451 525 703 1230 1420 2960 5060
2022-09-20 16:00 3.00 698 51200 (1905) 210 (1956) 1720 325 370 451 525 703 1230 1420 2960 5060
2022-09-20 15:30 3.00 698 51200 (1905) 210 (1956) 1720 325 370 451 525 703 1230 1420 2960 5060
2022-09-20 15:00 2.99 688 51200 (1905) 210 (1956) 1720 325 370 451 525 703 1230 1420 2960 5060
2022-09-20 14:30 3.00 698 51200 (1905) 210 (1956) 1720 325 370 451 525 703 1230 1420 2960 5060
2022-09-20 14:00 3.00 698 51200 (1905) 210 (1956) 1720 325 370 451 525 703 1230 1420 2960 5060
2022-09-20 13:30 3.00 698 51200 (1905) 210 (1956) 1720 325 370 451 525 703 1230 1420 2960 5060
2022-09-20 13:00 3.00 698 51200 (1905) 210 (1956) 1720 325 370 451 525 703 1230 1420 2960 5060
2022-09-20 12:30 3.00 698 51200 (1905) 210 (1956) 1720 325 370 451 525 703 1230 1420 2960 5060
2022-09-20 12:00 3.00 698 51200 (1905) 210 (1956) 1720 325 370 451 525 703 1230 1420 2960 5060
2022-09-20 11:30 3.00 698 51200 (1905) 210 (1956) 1720 325 370 451 525 703 1230 1420 2960 5060
2022-09-20 11:00 2.99 688 51200 (1905) 210 (1956) 1720 325 370 451 525 703 1230 1420 2960 5060
2022-09-20 10:30 3.00 698 51200 (1905) 210 (1956) 1720 325 370 451 525 703 1230 1420 2960 5060
2022-09-20 10:00 3.00 698 51200 (1905) 210 (1956) 1720 325 370 451 525 703 1230 1420 2960 5060
2022-09-20 09:30 3.00 698 51200 (1905) 210 (1956) 1720 325 370 451 525 703 1230 1420 2960 5060
2022-09-20 09:00 3.00 698 51200 (1905) 210 (1956) 1720 325 370 451 525 703 1230 1420 2960 5060
2022-09-20 08:30 3.00 698 51200 (1905) 210 (1956) 1720 325 370 451 525 703 1230 1420 2960 5060
2022-09-20 08:00 3.00 698 51200 (1905) 210 (1956) 1720 325 370 451 525 703 1230 1420 2960 5060
2022-09-20 07:30 2.99 688 51200 (1905) 210 (1956) 1720 325 370 451 525 703 1230 1420 2960 5060
2022-09-20 07:00 3.00 698 51200 (1905) 210 (1956) 1720 325 370 451 525 703 1230 1420 2960 5060
2022-09-20 06:30 3.00 698 51200 (1905) 210 (1956) 1720 325 370 451 525 703 1230 1420 2960 5060
2022-09-20 06:00 3.00 698 51200 (1905) 210 (1956) 1720 325 370 451 525 703 1230 1420 2960 5060
2022-09-20 05:30 3.00 698 51200 (1905) 210 (1956) 1720 325 370 451 525 703 1230 1420 2960 5060
2022-09-20 05:00 3.00 698 51200 (1905) 210 (1956) 1720 325 370 451 525 703 1230 1420 2960 5060
2022-09-20 04:30 3.00 698 51200 (1905) 210 (1956) 1720 325 370 451 525 703 1230 1420 2960 5060
2022-09-20 04:00 3.00 698 51200 (1905) 210 (1956) 1720 325 370 451 525 703 1230 1420 2960 5060
2022-09-20 03:30 3.00 698 51200 (1905) 210 (1956) 1720 325 370 451 525 703 1230 1420 2960 5060
2022-09-20 03:00 3.00 698 51200 (1905) 210 (1956) 1720 325 370 451 525 703 1230 1420 2960 5060
2022-09-20 02:30 3.01 708 51200 (1905) 210 (1956) 1720 325 370 451 525 703 1230 1420 2960 5060
2022-09-20 02:00 3.00 698 51200 (1905) 210 (1956) 1720 325 370 451 525 703 1230 1420 2960 5060
2022-09-20 01:30 3.01 708 51200 (1905) 210 (1956) 1720 325 370 451 525 703 1230 1420 2960 5060
2022-09-20 01:00 3.01 708 51200 (1905) 210 (1956) 1720 325 370 451 525 703 1230 1420 2960 5060
2022-09-20 00:30 3.01 708 51200 (1905) 210 (1956) 1720 325 370 451 525 703 1230 1420 2960 5060
2022-09-20 00:00 3.01 708 51200 (1905) 210 (1956) 1720 325 370 451 525 703 1230 1420 2960 5060
2022-09-19 23:30 3.02 719 37600 (1905) 220 (1956) 1780 325 372 446 500 666 1160 1450 3040 8000
2022-09-19 23:00 3.01 708 37600 (1905) 220 (1956) 1780 325 372 446 500 666 1160 1450 3040 8000
2022-09-19 22:30 3.01 708 37600 (1905) 220 (1956) 1780 325 372 446 500 666 1160 1450 3040 8000
2022-09-19 22:00 3.02 719 37600 (1905) 220 (1956) 1780 325 372 446 500 666 1160 1450 3040 8000
2022-09-19 21:30 3.02 719 37600 (1905) 220 (1956) 1780 325 372 446 500 666 1160 1450 3040 8000
2022-09-19 21:00 3.02 719 37600 (1905) 220 (1956) 1780 325 372 446 500 666 1160 1450 3040 8000
2022-09-19 20:30 3.02 719 37600 (1905) 220 (1956) 1780 325 372 446 500 666 1160 1450 3040 8000
2022-09-19 20:00 3.02 719 37600 (1905) 220 (1956) 1780 325 372 446 500 666 1160 1450 3040 8000
2022-09-19 19:30 3.02 719 37600 (1905) 220 (1956) 1780 325 372 446 500 666 1160 1450 3040 8000
2022-09-19 19:00 3.02 719 37600 (1905) 220 (1956) 1780 325 372 446 500 666 1160 1450 3040 8000
2022-09-19 18:30 3.02 719 37600 (1905) 220 (1956) 1780 325 372 446 500 666 1160 1450 3040 8000
2022-09-19 18:00 3.02 719 37600 (1905) 220 (1956) 1780 325 372 446 500 666 1160 1450 3040 8000
2022-09-19 17:30 3.02 719 37600 (1905) 220 (1956) 1780 325 372 446 500 666 1160 1450 3040 8000
2022-09-19 17:00 3.02 719 37600 (1905) 220 (1956) 1780 325 372 446 500 666 1160 1450 3040 8000
2022-09-19 16:30 3.02 719 37600 (1905) 220 (1956) 1780 325 372 446 500 666 1160 1450 3040 8000
2022-09-19 16:00 3.03 729 37600 (1905) 220 (1956) 1780 325 372 446 500 666 1160 1450 3040 8000
2022-09-19 15:30 3.03 729 37600 (1905) 220 (1956) 1780 325 372 446 500 666 1160 1450 3040 8000
2022-09-19 15:00 3.03 729 37600 (1905) 220 (1956) 1780 325 372 446 500 666 1160 1450 3040 8000
2022-09-19 14:30 3.02 719 37600 (1905) 220 (1956) 1780 325 372 446 500 666 1160 1450 3040 8000
2022-09-19 14:00 3.03 729 37600 (1905) 220 (1956) 1780 325 372 446 500 666 1160 1450 3040 8000
2022-09-19 13:30 3.03 729 37600 (1905) 220 (1956) 1780 325 372 446 500 666 1160 1450 3040 8000
2022-09-19 13:00 3.03 729 37600 (1905) 220 (1956) 1780 325 372 446 500 666 1160 1450 3040 8000
2022-09-19 12:30 3.03 729 37600 (1905) 220 (1956) 1780 325 372 446 500 666 1160 1450 3040 8000
2022-09-19 12:00 3.03 729 37600 (1905) 220 (1956) 1780 325 372 446 500 666 1160 1450 3040 8000
2022-09-19 11:30 3.03 729 37600 (1905) 220 (1956) 1780 325 372 446 500 666 1160 1450 3040 8000
2022-09-19 11:00 3.03 729 37600 (1905) 220 (1956) 1780 325 372 446 500 666 1160 1450 3040 8000
2022-09-19 10:30 3.03 729 37600 (1905) 220 (1956) 1780 325 372 446 500 666 1160 1450 3040 8000
2022-09-19 10:00 3.03 729 37600 (1905) 220 (1956) 1780 325 372 446 500 666 1160 1450 3040 8000
2022-09-19 09:30 3.03 729 37600 (1905) 220 (1956) 1780 325 372 446 500 666 1160 1450 3040 8000
2022-09-19 09:00 3.03 729 37600 (1905) 220 (1956) 1780 325 372 446 500 666 1160 1450 3040 8000
2022-09-19 08:30 3.03 729 37600 (1905) 220 (1956) 1780 325 372 446 500 666 1160 1450 3040 8000
2022-09-19 08:00 3.03 729 37600 (1905) 220 (1956) 1780 325 372 446 500 666 1160 1450 3040 8000
2022-09-19 07:30 3.03 729 37600 (1905) 220 (1956) 1780 325 372 446 500 666 1160 1450 3040 8000
2022-09-19 07:00 3.03 729 37600 (1905) 220 (1956) 1780 325 372 446 500 666 1160 1450 3040 8000
2022-09-19 06:30 3.03 729 37600 (1905) 220 (1956) 1780 325 372 446 500 666 1160 1450 3040 8000
2022-09-19 06:00 3.03 729 37600 (1905) 220 (1956) 1780 325 372 446 500 666 1160 1450 3040 8000
2022-09-19 05:30 3.04 740 37600 (1905) 220 (1956) 1780 325 372 446 500 666 1160 1450 3040 8000
2022-09-19 05:00 3.03 729 37600 (1905) 220 (1956) 1780 325 372 446 500 666 1160 1450 3040 8000
2022-09-19 04:30 3.03 729 37600 (1905) 220 (1956) 1780 325 372 446 500 666 1160 1450 3040 8000
2022-09-19 04:00 3.03 729 37600 (1905) 220 (1956) 1780 325 372 446 500 666 1160 1450 3040 8000
2022-09-19 03:30 3.04 740 37600 (1905) 220 (1956) 1780 325 372 446 500 666 1160 1450 3040 8000
2022-09-19 03:00 3.03 729 37600 (1905) 220 (1956) 1780 325 372 446 500 666 1160 1450 3040 8000
2022-09-19 02:30 3.04 740 37600 (1905) 220 (1956) 1780 325 372 446 500 666 1160 1450 3040 8000
2022-09-19 02:00 3.04 740 37600 (1905) 220 (1956) 1780 325 372 446 500 666 1160 1450 3040 8000
2022-09-19 01:30 3.03 729 37600 (1905) 220 (1956) 1780 325 372 446 500 666 1160 1450 3040 8000
2022-09-19 01:00 3.04 740 37600 (1905) 220 (1956) 1780 325 372 446 500 666 1160 1450 3040 8000
2022-09-19 00:30 3.04 740 37600 (1905) 220 (1956) 1780 325 372 446 500 666 1160 1450 3040 8000
2022-09-19 00:00 3.04 740 37600 (1905) 220 (1956) 1780 325 372 446 500 666 1160 1450 3040 8000
2022-09-18 23:30 3.03 729 34300 (2008) 225 (1954) 2020 328 373 439 501 672 1080 1420 2480 7510
2022-09-18 23:00 3.04 740 34300 (2008) 225 (1954) 2020 328 373 439 501 672 1080 1420 2480 7510
2022-09-18 22:30 3.04 740 34300 (2008) 225 (1954) 2020 328 373 439 501 672 1080 1420 2480 7510
2022-09-18 22:00 3.04 740 34300 (2008) 225 (1954) 2020 328 373 439 501 672 1080 1420 2480 7510
2022-09-18 21:30 3.04 740 34300 (2008) 225 (1954) 2020 328 373 439 501 672 1080 1420 2480 7510
2022-09-18 21:00 3.04 740 34300 (2008) 225 (1954) 2020 328 373 439 501 672 1080 1420 2480 7510
2022-09-18 20:30 3.04 740 34300 (2008) 225 (1954) 2020 328 373 439 501 672 1080 1420 2480 7510
2022-09-18 20:00 3.04 740 34300 (2008) 225 (1954) 2020 328 373 439 501 672 1080 1420 2480 7510
2022-09-18 19:30 3.04 740 34300 (2008) 225 (1954) 2020 328 373 439 501 672 1080 1420 2480 7510
2022-09-18 19:00 3.04 740 34300 (2008) 225 (1954) 2020 328 373 439 501 672 1080 1420 2480 7510
2022-09-18 18:30 3.04 740 34300 (2008) 225 (1954) 2020 328 373 439 501 672 1080 1420 2480 7510
2022-09-18 18:00 3.05 750 34300 (2008) 225 (1954) 2020 328 373 439 501 672 1080 1420 2480 7510
2022-09-18 17:30 3.04 740 34300 (2008) 225 (1954) 2020 328 373 439 501 672 1080 1420 2480 7510
2022-09-18 17:00 3.04 740 34300 (2008) 225 (1954) 2020 328 373 439 501 672 1080 1420 2480 7510
2022-09-18 16:30 3.05 750 34300 (2008) 225 (1954) 2020 328 373 439 501 672 1080 1420 2480 7510
2022-09-18 16:00 3.04 740 34300 (2008) 225 (1954) 2020 328 373 439 501 672 1080 1420 2480 7510
2022-09-18 15:30 3.04 740 34300 (2008) 225 (1954) 2020 328 373 439 501 672 1080 1420 2480 7510
2022-09-18 15:00 3.04 740 34300 (2008) 225 (1954) 2020 328 373 439 501 672 1080 1420 2480 7510
2022-09-18 14:30 3.04 740 34300 (2008) 225 (1954) 2020 328 373 439 501 672 1080 1420 2480 7510
2022-09-18 14:00 3.05 750 34300 (2008) 225 (1954) 2020 328 373 439 501 672 1080 1420 2480 7510
2022-09-18 13:30 3.05 750 34300 (2008) 225 (1954) 2020 328 373 439 501 672 1080 1420 2480 7510
2022-09-18 13:00 3.05 750 34300 (2008) 225 (1954) 2020 328 373 439 501 672 1080 1420 2480 7510
2022-09-18 12:00 3.05 750 34300 (2008) 225 (1954) 2020 328 373 439 501 672 1080 1420 2480 7510
2022-09-18 11:30 3.05 750 34300 (2008) 225 (1954) 2020 328 373 439 501 672 1080 1420 2480 7510
2022-09-18 11:00 3.04 740 34300 (2008) 225 (1954) 2020 328 373 439 501 672 1080 1420 2480 7510
2022-09-18 10:30 3.04 740 34300 (2008) 225 (1954) 2020 328 373 439 501 672 1080 1420 2480 7510
2022-09-18 10:00 3.05 750 34300 (2008) 225 (1954) 2020 328 373 439 501 672 1080 1420 2480 7510
2022-09-18 09:30 3.04 740 34300 (2008) 225 (1954) 2020 328 373 439 501 672 1080 1420 2480 7510
2022-09-18 09:00 3.04 740 34300 (2008) 225 (1954) 2020 328 373 439 501 672 1080 1420 2480 7510
2022-09-18 08:30 3.02 719 34300 (2008) 225 (1954) 2020 328 373 439 501 672 1080 1420 2480 7510
2022-09-18 08:00 3.03 729 34300 (2008) 225 (1954) 2020 328 373 439 501 672 1080 1420 2480 7510
2022-09-18 07:30 3.03 729 34300 (2008) 225 (1954) 2020 328 373 439 501 672 1080 1420 2480 7510
2022-09-18 07:00 3.03 729 34300 (2008) 225 (1954) 2020 328 373 439 501 672 1080 1420 2480 7510
2022-09-18 06:30 3.03 729 34300 (2008) 225 (1954) 2020 328 373 439 501 672 1080 1420 2480 7510
2022-09-18 06:00 3.04 740 34300 (2008) 225 (1954) 2020 328 373 439 501 672 1080 1420 2480 7510
2022-09-18 05:30 3.04 740 34300 (2008) 225 (1954) 2020 328 373 439 501 672 1080 1420 2480 7510
2022-09-18 05:00 3.03 729 34300 (2008) 225 (1954) 2020 328 373 439 501 672 1080 1420 2480 7510
2022-09-18 04:30 3.04 740 34300 (2008) 225 (1954) 2020 328 373 439 501 672 1080 1420 2480 7510
2022-09-18 04:00 3.03 729 34300 (2008) 225 (1954) 2020 328 373 439 501 672 1080 1420 2480 7510
2022-09-18 03:30 3.03 729 34300 (2008) 225 (1954) 2020 328 373 439 501 672 1080 1420 2480 7510
2022-09-18 03:00 3.04 740 34300 (2008) 225 (1954) 2020 328 373 439 501 672 1080 1420 2480 7510
2022-09-18 02:30 3.04 740 34300 (2008) 225 (1954) 2020 328 373 439 501 672 1080 1420 2480 7510
2022-09-18 02:00 3.03 729 34300 (2008) 225 (1954) 2020 328 373 439 501 672 1080 1420 2480 7510
2022-09-18 01:30 3.04 740 34300 (2008) 225 (1954) 2020 328 373 439 501 672 1080 1420 2480 7510
2022-09-18 01:00 3.04 740 34300 (2008) 225 (1954) 2020 328 373 439 501 672 1080 1420 2480 7510
2022-09-18 00:30 3.04 740 34300 (2008) 225 (1954) 2020 328 373 439 501 672 1080 1420 2480 7510
2022-09-18 00:00 3.04 740 34300 (2008) 225 (1954) 2020 328 373 439 501 672 1080 1420 2480 7510

A total of 381 rows are displayed for years 1904 through 2021.